Terminal Aerodrome Forecast
Issued by NWS

Home | Current Version | Previous Version | Text Only | Print | Product List | Glossary On
Versions: 1 2 3 4 5 6 7 8 9 10 11 12 13 14 15 16 17 18 19 20 21 22 23 24 25 26 27 28 29 30 31 32 33
000
FTUS46 KSEW 050536
TAFSEA
TAF
KSEA 050536Z 0506/0612 35004KT P6SM FEW090 SCT250
     FM050800 VRB04KT P6SM FEW020 SCT050
     FM051000 20006KT P6SM SCT015 BKN050
      TEMPO 0511/0515 BKN015 OVC050
     FM052100 21007KT P6SM BKN070
     FM060300 23007KT P6SM SCT070=

USA.gov is the U.S. government's official web portal to all federal, state and local government web resources and services.